Time;durP1;ratioP1;P1;durP2;ratioP2;P2;SDS_P1;SDS_P2;PMS_P1;PMS_P2;Temp;Humidity;BMP_temperature;BMP_pressure;BME280_temperature;BME280_humidity;BME280_pressure;Samples;Min_cycle;Max_cycle;Signal;HPM_P1;HPM_P2
2023/01/20 00:01:56;;;;;;;16.65;10.07;;;;;;;-1.45;100.00;98408.66;5046604;28;20500;-78
2023/01/20 00:04:22;;;;;;;16.25;9.52;;;;;;;-1.45;100.00;98411.34;5047844;28;20056;-78
2023/01/20 00:06:49;;;;;;;17.02;9.25;;;;;;;-1.57;100.00;98408.84;5041414;28;20054;-78
2023/01/20 00:09:18;;;;;;;19.15;10.02;;;;;;;-1.47;100.00;98410.63;5050219;28;20186;-78
2023/01/20 00:11:45;;;;;;;16.67;10.35;;;;;;;-1.43;100.00;98412.06;5051147;28;20393;-78
2023/01/20 00:14:11;;;;;;;19.65;10.13;;;;;;;-1.56;100.00;98413.22;5043094;28;20291;-78
2023/01/20 00:16:38;;;;;;;21.08;10.88;;;;;;;-1.52;100.00;98420.84;5044890;28;20049;-78
2023/01/20 00:19:05;;;;;;;20.42;10.93;;;;;;;-1.49;100.00;98423.25;5046560;28;20045;-78
2023/01/20 00:21:33;;;;;;;20.73;10.65;;;;;;;-1.33;100.00;98422.81;5051034;28;20041;-78
2023/01/20 00:24:00;;;;;;;17.00;9.60;;;;;;;-1.37;100.00;98428.53;5043302;28;20053;-78
2023/01/20 00:26:28;;;;;;;22.10;11.55;;;;;;;-1.45;100.00;98434.50;5051680;28;20284;-78
2023/01/20 00:28:56;;;;;;;19.85;11.40;;;;;;;-1.48;100.00;98427.59;5044048;28;20045;-78
2023/01/20 00:31:25;;;;;;;15.65;10.10;;;;;;;-1.60;100.00;98420.59;5047544;28;20485;-78
2023/01/20 00:33:56;;;;;;;19.60;9.80;;;;;;;-1.54;100.00;98429.94;5046378;28;20065;-78
2023/01/20 00:36:24;;;;;;;18.17;10.68;;;;;;;-1.37;100.00;98445.38;5048870;28;20049;-77
2023/01/20 00:38:51;;;;;;;17.42;10.02;;;;;;;-1.47;100.00;98439.13;5047717;28;20078;-78
2023/01/20 00:41:18;;;;;;;21.50;10.52;;;;;;;-1.65;100.00;98415.66;5043252;28;20072;-78
2023/01/20 00:43:46;;;;;;;18.17;9.75;;;;;;;-1.57;100.00;98431.00;5045841;28;20060;-78
2023/01/20 00:46:13;;;;;;;22.33;10.82;;;;;;;-1.56;100.00;98443.38;5048275;28;20037;-78
2023/01/20 00:48:40;;;;;;;16.65;9.93;;;;;;;-1.50;100.00;98445.53;5049642;28;20052;-78
2023/01/20 00:51:08;;;;;;;17.75;10.25;;;;;;;-1.56;100.00;98437.22;5049698;28;20048;-78
2023/01/20 00:53:35;;;;;;;18.83;10.65;;;;;;;-1.64;100.00;98433.34;5049244;28;20127;-78
2023/01/20 00:56:01;;;;;;;15.50;10.05;;;;;;;-1.58;100.00;98434.69;5047997;28;20051;-78
2023/01/20 00:58:28;;;;;;;20.35;11.13;;;;;;;-1.63;100.00;98431.53;5052670;28;20570;-78
2023/01/20 01:00:57;;;;;;;22.77;10.70;;;;;;;-1.40;100.00;98458.97;5050765;28;20525;-78
2023/01/20 01:03:26;;;;;;;21.13;11.52;;;;;;;-1.47;100.00;98447.94;5049018;28;20052;-78
2023/01/20 01:05:53;;;;;;;19.52;10.35;;;;;;;-1.42;100.00;98463.56;5051306;28;20071;-78
2023/01/20 01:08:20;;;;;;;19.83;10.00;;;;;;;-1.36;100.00;98470.22;5050417;28;20069;-78
2023/01/20 01:10:46;;;;;;;19.70;11.25;;;;;;;-1.50;100.00;98472.19;5045677;28;20065;-78
2023/01/20 01:13:13;;;;;;;17.83;11.15;;;;;;;-1.51;100.00;98483.00;5046876;28;20059;-78
2023/01/20 01:15:39;;;;;;;17.65;9.90;;;;;;;-1.46;100.00;98483.44;5051406;28;20041;-78
2023/01/20 01:18:07;;;;;;;23.83;10.82;;;;;;;-1.43;100.00;98481.41;5048299;28;20044;-78
2023/01/20 01:20:34;;;;;;;19.92;10.93;;;;;;;-1.59;100.00;98472.97;5045051;28;20060;-78
2023/01/20 01:23:00;;;;;;;18.23;10.63;;;;;;;-1.58;100.00;98476.47;5040344;28;20053;-78
2023/01/20 01:25:27;;;;;;;18.27;10.75;;;;;;;-1.44;100.00;98493.03;5049636;28;20041;-78
2023/01/20 01:27:53;;;;;;;22.15;11.95;;;;;;;-1.42;100.00;98500.91;5051464;28;20053;-78
2023/01/20 01:30:20;;;;;;;21.58;11.32;;;;;;;-1.67;100.00;98464.72;5049631;28;20053;-78
2023/01/20 01:32:47;;;;;;;18.73;10.52;;;;;;;-1.47;100.00;98498.59;5042744;28;20061;-78
2023/01/20 01:35:15;;;;;;;18.23;10.68;;;;;;;-1.58;100.00;98477.31;5042764;28;20053;-78
2023/01/20 01:37:41;;;;;;;20.27;11.00;;;;;;;-1.38;100.00;98485.50;5048706;28;20056;-78
2023/01/20 01:40:09;;;;;;;21.33;11.95;;;;;;;-1.33;100.00;98505.47;5049957;28;20503;-78
2023/01/20 01:42:36;;;;;;;17.45;10.55;;;;;;;-1.47;100.00;98498.59;5043844;28;20049;-78
2023/01/20 01:45:22;;;;;;;21.13;11.52;;;;;;;-1.59;100.00;98478.28;5047968;28;20052;-78
2023/01/20 01:47:55;;;;;;;16.67;9.50;;;;;;;-1.58;100.00;98501.31;5049474;28;20524;-78
2023/01/20 01:50:27;;;;;;;19.58;11.55;;;;;;;-1.41;100.00;98510.59;5040672;28;20051;-78
2023/01/20 01:52:56;;;;;;;17.63;10.32;;;;;;;-1.50;100.00;98495.34;5036632;28;20406;-78
2023/01/20 01:55:27;;;;;;;23.60;12.25;;;;;;;-1.37;100.00;98522.72;5049548;28;20053;-78
2023/01/20 01:57:55;;;;;;;18.98;10.43;;;;;;;-1.55;100.00;98501.06;5043201;28;20068;-78
2023/01/20 02:00:22;;;;;;;19.67;11.75;;;;;;;-1.54;100.00;98509.91;5047735;28;20060;-78
2023/01/20 02:02:49;;;;;;;22.60;11.82;;;;;;;-1.51;100.00;98499.81;5045524;28;20392;-78
2023/01/20 02:05:17;;;;;;;21.63;10.55;;;;;;;-1.48;100.00;98504.06;5050213;28;20051;-78
2023/01/20 02:07:47;;;;;;;21.33;10.00;;;;;;;-1.50;100.00;98506.03;5049486;28;20041;-78
2023/01/20 02:10:15;;;;;;;19.88;10.93;;;;;;;-1.34;100.00;98519.81;5047948;28;20050;-77
2023/01/20 02:12:46;;;;;;;20.67;10.52;;;;;;;-1.43;100.00;98513.41;5048837;28;20053;-78
2023/01/20 02:15:13;;;;;;;17.73;10.13;;;;;;;-1.39;100.00;98518.47;5048700;28;20408;-78
2023/01/20 02:17:53;;;;;;;29.85;11.15;;;;;;;-1.54;100.00;98515.22;5041903;28;20052;-78
2023/01/20 02:20:57;;;;;;;19.02;10.18;;;;;;;-1.61;100.00;98520.22;5046100;28;20060;-78
2023/01/20 02:23:45;;;;;;;21.20;10.55;;;;;;;-1.67;100.00;98502.91;5048219;28;20511;-78
2023/01/20 02:26:30;;;;;;;20.52;10.07;;;;;;;-1.64;100.00;98507.13;5047429;28;20052;-78
2023/01/20 02:29:23;;;;;;;20.73;11.00;;;;;;;-1.63;100.00;98500.81;5048844;28;20048;-78
2023/01/20 02:32:09;;;;;;;18.85;10.80;;;;;;;-1.40;100.00;98522.97;5039093;28;20060;-78
2023/01/20 02:34:41;;;;;;;17.55;9.45;;;;;;;-1.40;100.00;98516.78;5050981;28;20499;-78
2023/01/20 02:37:13;;;;;;;19.67;10.95;;;;;;;-1.40;100.00;98527.44;5049720;28;20402;-78
2023/01/20 02:39:48;;;;;;;20.50;11.15;;;;;;;-1.44;100.00;98526.84;5042251;28;20126;-78
2023/01/20 02:42:19;;;;;;;15.75;10.30;;;;;;;-1.50;100.00;98525.53;5045634;28;20675;-78
2023/01/20 02:44:52;;;;;;;17.38;9.95;;;;;;;-1.53;100.00;98533.78;5048680;28;20103;-78
2023/01/20 02:47:28;;;;;;;21.73;11.38;;;;;;;-1.48;100.00;98544.06;5049235;28;20045;-78
2023/01/20 02:49:59;;;;;;;17.20;10.77;;;;;;;-1.58;100.00;98537.75;5043330;28;20057;-78
2023/01/20 02:52:28;;;;;;;22.45;11.80;;;;;;;-1.68;100.00;98524.34;5045333;28;20080;-78
2023/01/20 02:54:58;;;;;;;18.55;10.73;;;;;;;-1.61;100.00;98539.72;5038770;28;20054;-78
2023/01/20 02:57:30;;;;;;;21.20;11.27;;;;;;;-1.49;100.00;98547.69;5041081;28;20496;-78
2023/01/20 03:00:02;;;;;;;19.63;10.95;;;;;;;-1.45;100.00;98549.16;5044729;28;20055;-78
2023/01/20 03:02:34;;;;;;;19.65;11.43;;;;;;;-1.36;100.00;98560.88;5046588;28;20051;-78
2023/01/20 03:05:04;;;;;;;24.13;12.90;;;;;;;-1.31;100.00;98558.69;5049160;28;20053;-78
2023/01/20 03:07:35;;;;;;;20.92;10.07;;;;;;;-1.43;100.00;98545.38;5038708;28;20057;-78
2023/01/20 03:10:07;;;;;;;18.20;10.85;;;;;;;-1.46;100.00;98534.97;5046786;28;20506;-78
2023/01/20 03:12:38;;;;;;;19.67;10.40;;;;;;;-1.41;100.00;98563.09;5033956;28;20042;-78
2023/01/20 03:15:07;;;;;;;25.35;11.68;;;;;;;-1.52;100.00;98561.25;5041202;28;20037;-78
2023/01/20 03:17:35;;;;;;;23.40;11.57;;;;;;;-1.61;100.00;98552.22;5039431;28;20037;-78
2023/01/20 03:20:02;;;;;;;22.77;12.60;;;;;;;-1.56;100.00;98562.50;5048290;28;20052;-78
2023/01/20 03:22:30;;;;;;;20.55;11.70;;;;;;;-1.57;100.00;98555.47;5045317;28;20041;-78
2023/01/20 03:24:58;;;;;;;19.92;11.98;;;;;;;-1.49;100.00;98572.56;5050166;28;20055;-78
2023/01/20 03:27:25;;;;;;;18.80;10.95;;;;;;;-1.63;100.00;98567.47;5044822;28;20310;-78
2023/01/20 03:29:52;;;;;;;22.48;12.05;;;;;;;-1.55;100.00;98566.84;5041561;28;20051;-78
2023/01/20 03:32:21;;;;;;;20.08;11.65;;;;;;;-1.53;100.00;98575.59;5045946;28;20049;-78
2023/01/20 03:34:49;;;;;;;23.67;12.40;;;;;;;-1.67;100.00;98550.88;5049724;28;20099;-78
2023/01/20 03:37:16;;;;;;;22.50;11.65;;;;;;;-1.56;100.00;98566.00;5050459;28;20492;-78
2023/01/20 03:39:42;;;;;;;21.02;10.82;;;;;;;-1.66;100.00;98570.38;5046686;28;20045;-78
2023/01/20 03:42:14;;;;;;;17.83;10.43;;;;;;;-1.73;100.00;98572.69;5050027;28;20065;-78
2023/01/20 03:44:56;;;;;;;21.42;10.80;;;;;;;-1.65;100.00;98586.25;5048524;28;20056;-78
2023/01/20 03:47:35;;;;;;;23.50;10.77;;;;;;;-1.72;100.00;98570.88;5048175;28;20048;-78
2023/01/20 03:50:09;;;;;;;26.98;12.02;;;;;;;-1.64;100.00;98589.75;5048322;28;20408;-78
2023/01/20 03:52:41;;;;;;;22.45;11.52;;;;;;;-1.64;100.00;98589.75;5044971;28;20429;-78
2023/01/20 03:55:14;;;;;;;19.52;11.07;;;;;;;-1.66;100.00;98600.53;5046016;28;20512;-78
2023/01/20 03:57:45;;;;;;;20.48;12.13;;;;;;;-1.70;100.00;98590.22;5053387;28;20045;-78
2023/01/20 04:00:13;;;;;;;20.40;10.40;;;;;;;-1.75;100.00;98581.75;5050748;28;20049;-77
2023/01/20 04:02:41;;;;;;;23.20;11.43;;;;;;;-1.68;100.00;98601.63;5045222;28;20412;-78
2023/01/20 04:05:10;;;;;;;24.10;12.82;;;;;;;-1.72;100.00;98600.19;5042191;28;20050;-78
2023/01/20 04:07:40;;;;;;;19.67;10.73;;;;;;;-1.73;100.00;98599.34;5044243;28;20041;-78
2023/01/20 04:10:10;;;;;;;;;;;;;;;-1.68;100.00;98605.16;5052264;28;20424;-78
2023/01/20 04:12:37;;;;;;;18.70;10.65;;;;;;;-1.79;100.00;98597.16;5046779;28;19921;-78
2023/01/20 04:15:06;;;;;;;22.55;12.65;;;;;;;-1.56;100.00;98622.00;5052330;28;20041;-78
2023/01/20 04:17:33;;;;;;;20.73;12.20;;;;;;;-1.66;100.00;98605.84;5051363;28;20045;-78
2023/01/20 04:20:03;;;;;;;22.98;11.98;;;;;;;-1.68;100.00;98609.63;5046521;28;20051;-78
2023/01/20 04:22:36;;;;;;;22.13;12.52;;;;;;;-1.59;100.00;98630.22;5040052;28;20042;-78
2023/01/20 04:25:11;;;;;;;21.65;11.82;;;;;;;-1.52;100.00;98628.78;5048697;28;20049;-78
2023/01/20 04:27:38;;;;;;;21.02;12.52;;;;;;;-1.57;100.00;98620.28;5042503;28;20053;-78
2023/01/20 04:30:05;;;;;;;29.23;13.73;;;;;;;-1.47;100.00;98625.75;5052109;28;20080;-78
2023/01/20 04:32:31;;;;;;;19.05;11.25;;;;;;;-1.47;100.00;98620.41;5035264;28;20133;-78
2023/01/20 04:35:01;;;;;;;21.98;12.07;;;;;;;-1.42;100.00;98628.88;5040163;28;20057;-78
2023/01/20 04:37:27;;;;;;;18.55;11.45;;;;;;;-1.45;100.00;98629.97;5047678;28;20037;-78
2023/01/20 04:39:55;;;;;;;20.63;11.65;;;;;;;-1.67;100.00;98617.50;5048490;28;20045;-78
2023/01/20 04:42:22;;;;;;;20.30;12.63;;;;;;;-1.65;100.00;98612.91;5047764;28;20055;-78
2023/01/20 04:44:48;;;;;;;24.20;14.10;;;;;;;-1.51;100.00;98621.63;5052964;28;20052;-78
2023/01/20 04:47:15;;;;;;;23.42;12.38;;;;;;;-1.52;100.00;98625.25;5045025;28;20037;-78
2023/01/20 04:49:41;;;;;;;23.33;12.98;;;;;;;-1.38;100.00;98637.50;5044065;28;20052;-78
2023/01/20 04:52:08;;;;;;;20.42;11.13;;;;;;;-1.45;100.00;98640.63;5047094;28;20079;-78
2023/01/20 04:54:34;;;;;;;22.25;12.43;;;;;;;-1.47;100.00;98645.25;5050873;28;20045;-78
2023/01/20 04:57:03;;;;;;;22.63;12.50;;;;;;;-1.54;100.00;98629.88;5046576;28;20096;-78
2023/01/20 04:59:29;;;;;;;25.00;12.10;;;;;;;-1.55;100.00;98639.69;5049354;28;20037;-78
2023/01/20 05:01:56;;;;;;;26.38;13.13;;;;;;;-1.57;100.00;98646.94;5052180;28;20063;-78
2023/01/20 05:04:22;;;;;;;25.58;12.18;;;;;;;-1.48;100.00;98653.38;5047274;28;20145;-78
2023/01/20 05:06:49;;;;;;;20.08;11.55;;;;;;;-1.42;100.00;98663.53;5036955;28;20045;-78
2023/01/20 05:09:16;;;;;;;29.02;12.80;;;;;;;-1.46;100.00;98654.09;5047524;28;20056;-78
2023/01/20 05:11:42;;;;;;;24.35;11.60;;;;;;;-1.52;100.00;98646.56;5050733;28;20048;-78
2023/01/20 05:14:10;;;;;;;21.30;12.00;;;;;;;-1.39;100.00;98673.97;5037317;28;20064;-78
2023/01/20 05:16:37;;;;;;;30.42;11.93;;;;;;;-1.54;100.00;98661.84;5049513;28;20067;-78
2023/01/20 05:19:04;;;;;;;21.35;11.90;;;;;;;-1.49;100.00;98667.66;5041504;28;20140;-78
2023/01/20 05:21:31;;;;;;;24.92;12.32;;;;;;;-1.50;100.00;98669.50;5043262;28;20504;-78
2023/01/20 05:23:57;;;;;;;21.30;11.80;;;;;;;-1.39;100.00;98678.47;5046589;28;20053;-77
2023/01/20 05:26:25;;;;;;;18.45;11.13;;;;;;;-1.36;100.00;98684.41;5050244;28;20045;-78
2023/01/20 05:28:52;;;;;;;22.40;11.45;;;;;;;-1.36;100.00;98687.06;5051385;28;20411;-78
2023/01/20 05:31:20;;;;;;;20.50;11.25;;;;;;;-1.37;100.00;98688.06;5043755;28;20049;-78
2023/01/20 05:33:47;;;;;;;21.52;11.63;;;;;;;-1.52;100.00;98671.44;5047052;28;20488;-82
2023/01/20 05:36:13;;;;;;;25.80;12.93;;;;;;;-1.47;100.00;98677.25;5048150;28;20048;-80
2023/01/20 05:38:40;;;;;;;19.25;10.93;;;;;;;-1.37;100.00;98700.50;5049846;28;20052;-79
2023/01/20 05:41:09;;;;;;;26.48;12.80;;;;;;;-1.64;100.00;98675.91;5050255;28;20053;-80
2023/01/20 05:43:36;;;;;;;22.17;12.07;;;;;;;-1.44;100.00;98716.16;5038455;28;20059;-80
2023/01/20 05:46:04;;;;;;;22.52;12.25;;;;;;;-1.63;100.00;98690.91;5048365;28;20048;-80
2023/01/20 05:48:32;;;;;;;22.42;12.27;;;;;;;-1.73;100.00;98678.44;5049390;28;20562;-80
2023/01/20 05:50:58;;;;;;;23.58;12.13;;;;;;;-1.53;100.00;98711.56;5041626;28;20075;-80
2023/01/20 05:53:25;;;;;;;24.25;12.35;;;;;;;-1.66;100.00;98700.97;5048175;28;20488;-80
2023/01/20 05:55:59;;;;;;;24.10;12.68;;;;;;;-1.73;100.00;98694.41;5049020;28;20091;-80
2023/01/20 05:58:26;;;;;;;24.73;12.32;;;;;;;-1.70;100.00;98689.72;5047083;28;20049;-80
2023/01/20 06:00:52;;;;;;;21.33;12.45;;;;;;;-1.59;100.00;98710.19;5044482;28;20074;-80
2023/01/20 06:03:27;;;;;;;20.55;12.40;;;;;;;-1.52;100.00;98714.09;5039568;28;20073;-80
2023/01/20 06:06:01;;;;;;;23.38;11.50;;;;;;;-1.64;100.00;98709.69;5049140;28;20055;-80
2023/01/20 06:08:28;;;;;;;25.25;12.85;;;;;;;-1.72;100.00;98704.13;5045399;28;20045;-80
2023/01/20 06:10:55;;;;;;;23.83;12.43;;;;;;;-1.71;100.00;98697.81;5047454;28;20098;-80
2023/01/20 06:13:21;;;;;;;23.20;11.52;;;;;;;-1.79;100.00;98706.41;5051611;28;20071;-80
2023/01/20 06:15:51;;;;;;;21.77;12.40;;;;;;;-1.86;100.00;98698.03;5045336;28;20049;-80
2023/01/20 06:18:17;;;;;;;18.58;9.88;;;;;;;-1.85;100.00;98714.84;5050187;28;20060;-80
2023/01/20 06:20:44;;;;;;;24.15;11.13;;;;;;;-1.85;100.00;98725.50;5047270;28;20041;-81
2023/01/20 06:23:19;;;;;;;19.85;10.00;;;;;;;-1.88;100.00;98717.75;5032745;28;20053;-80
2023/01/20 06:25:47;;;;;;;22.55;10.15;;;;;;;-2.02;100.00;98697.50;5037403;28;20131;-80
2023/01/20 06:28:14;;;;;;;20.88;10.52;;;;;;;-2.06;100.00;98730.66;5049695;28;20136;-80
2023/01/20 06:30:42;;;;;;;21.15;10.80;;;;;;;-2.20;100.00;98723.72;5049054;28;20049;-80
2023/01/20 06:33:09;;;;;;;20.67;9.93;;;;;;;-2.21;100.00;98724.69;5048658;28;20053;-80
2023/01/20 06:35:36;;;;;;;15.40;9.77;;;;;;;-2.36;100.00;98714.22;5044498;28;20076;-81
2023/01/20 06:38:03;;;;;;;19.65;10.00;;;;;;;-2.21;100.00;98761.97;5050995;28;20140;-81
2023/01/20 06:40:31;;;;;;;16.23;9.23;;;;;;;-2.38;100.00;98739.25;5050961;28;20049;-80
2023/01/20 06:42:58;;;;;;;18.83;10.63;;;;;;;-2.39;100.00;98757.03;5046569;28;20091;-81
2023/01/20 06:45:24;;;;;;;18.40;9.93;;;;;;;-2.36;100.00;98761.28;5046205;28;20064;-81
2023/01/20 06:48:00;;;;;;;18.48;10.30;;;;;;;-2.43;100.00;98766.19;5043067;28;20057;-79
2023/01/20 06:50:32;;;;;;;27.38;12.13;;;;;;;-2.34;100.00;98767.34;5049202;28;20458;-79
2023/01/20 06:53:07;;;;;;;23.75;11.57;;;;;;;-2.27;100.00;98784.56;5041587;28;20045;-80
2023/01/20 06:55:35;;;;;;;19.10;10.50;;;;;;;-2.19;100.00;98798.16;5048411;28;20469;-80
2023/01/20 06:58:01;;;;;;;20.55;10.77;;;;;;;-2.18;100.00;98791.03;5042241;28;20040;-80
2023/01/20 07:00:28;;;;;;;23.63;11.32;;;;;;;-2.28;100.00;98784.69;5045289;28;20045;-80
2023/01/20 07:03:32;;;;;;;;;;;;;;;;;;;;;
2023/01/20 07:06:01;;;;;;;20.90;11.43;;;;;;;-2.05;100.00;98805.13;5034332;28;20419;-79
2023/01/20 07:08:28;;;;;;;23.38;11.70;;;;;;;-2.08;100.00;98805.34;5048691;28;20041;-80
2023/01/20 07:10:57;;;;;;;21.75;11.10;;;;;;;-2.02;100.00;98820.03;5044759;28;20049;-81
2023/01/20 07:13:24;;;;;;;21.38;11.30;;;;;;;-2.11;100.00;98807.41;5042251;28;20085;-80
2023/01/20 07:15:51;;;;;;;18.55;10.10;;;;;;;-2.11;100.00;98794.94;5051200;28;20053;-79
2023/01/20 07:18:18;;;;;;;18.83;11.45;;;;;;;-1.97;100.00;98818.75;5051746;28;20051;-79
2023/01/20 07:20:44;;;;;;;20.38;10.48;;;;;;;-1.98;100.00;98808.19;5050100;28;20049;-79
2023/01/20 07:23:30;;;;;;;19.02;10.88;;;;;;;-2.07;100.00;98792.91;5028081;28;20056;-79
2023/01/20 07:25:59;;;;;;;21.17;10.98;;;;;;;-2.01;100.00;98829.75;5048590;28;20497;-80
2023/01/20 07:28:26;;;;;;;19.23;10.55;;;;;;;-2.08;100.00;98829.31;5046094;28;20041;-79
2023/01/20 07:30:52;;;;;;;18.25;9.98;;;;;;;-2.07;100.00;98830.19;5041567;28;20382;-79
2023/01/20 07:33:22;;;;;;;21.50;10.50;;;;;;;-2.19;100.00;98815.97;5043948;28;20484;-79
2023/01/20 07:35:53;;;;;;;23.15;10.65;;;;;;;-2.09;100.00;98834.78;5030551;28;20143;-80
2023/01/20 07:38:19;;;;;;;22.17;10.57;;;;;;;-2.08;100.00;98839.97;5030800;28;20077;-80
2023/01/20 07:40:51;;;;;;;16.17;10.38;;;;;;;-2.10;100.00;98825.09;5042256;28;20142;-79
2023/01/20 07:43:21;;;;;;;25.40;11.35;;;;;;;-2.01;100.00;98848.41;5048380;28;20049;-79
2023/01/20 07:45:47;;;;;;;21.80;11.52;;;;;;;-2.04;100.00;98840.63;5044172;28;20057;-79
2023/01/20 07:48:16;;;;;;;21.27;11.25;;;;;;;-1.93;100.00;98855.81;5029943;28;20050;-80
2023/01/20 07:50:43;;;;;;;19.43;12.77;;;;;;;-1.84;100.00;98860.47;5040862;28;20049;-80
2023/01/20 07:53:09;;;;;;;17.80;10.27;;;;;;;-2.02;100.00;98844.88;5040546;28;20276;-79
2023/01/20 07:55:36;;;;;;;17.48;10.40;;;;;;;-1.86;100.00;98865.06;5029949;28;20053;-80
2023/01/20 07:58:03;;;;;;;18.67;11.40;;;;;;;-1.75;100.00;98867.75;5044294;28;20049;-79
2023/01/20 08:00:31;;;;;;;18.10;10.45;;;;;;;-1.81;100.00;98850.44;5048195;28;20064;-80
2023/01/20 08:02:59;;;;;;;22.52;11.38;;;;;;;-1.68;100.00;98868.19;5048361;28;20495;-80
2023/01/20 08:05:26;;;;;;;20.37;11.20;;;;;;;-1.70;100.00;98872.75;5049896;28;20068;-80
2023/01/20 08:07:53;;;;;;;21.50;12.35;;;;;;;-1.55;100.00;98889.41;5049161;28;20049;-80
2023/01/20 08:10:19;;;;;;;23.17;12.20;;;;;;;-1.50;100.00;98881.94;5031121;28;20557;-80
2023/01/20 08:12:46;;;;;;;26.38;11.73;;;;;;;-1.55;100.00;98884.97;5036186;28;20421;-79
2023/01/20 08:15:13;;;;;;;24.23;11.13;;;;;;;-1.50;100.00;98893.44;5048132;28;20045;-80
2023/01/20 08:17:40;;;;;;;20.15;12.10;;;;;;;-1.45;100.00;98904.59;5048315;28;20526;-79
2023/01/20 08:20:10;;;;;;;29.98;14.10;;;;;;;-1.49;100.00;98873.84;5049656;28;20068;-80
2023/01/20 08:22:36;;;;;;;20.70;11.32;;;;;;;-1.25;100.00;98899.59;5046804;28;20095;-79
2023/01/20 08:25:03;;;;;;;21.15;11.20;;;;;;;-1.39;100.00;98883.78;5049083;28;20056;-79
2023/01/20 08:27:29;;;;;;;28.88;12.23;;;;;;;-1.33;100.00;98889.50;5045358;28;20041;-80
2023/01/20 08:29:56;;;;;;;25.88;12.27;;;;;;;-1.15;100.00;98905.94;5052081;28;20241;-79
2023/01/20 08:32:22;;;;;;;29.15;12.02;;;;;;;-1.00;100.00;98922.59;5051370;28;20052;-79
2023/01/20 08:34:50;;;;;;;26.30;11.77;;;;;;;-0.96;100.00;98910.72;5050298;28;20041;-79
2023/01/20 08:37:17;;;;;;;19.27;11.38;;;;;;;-1.07;100.00;98902.66;5053617;28;20053;-79
2023/01/20 08:39:44;;;;;;;17.08;11.35;;;;;;;-0.94;100.00;98919.44;5051057;28;20049;-79
2023/01/20 08:42:10;;;;;;;19.35;11.13;;;;;;;-1.00;100.00;98913.75;5044149;28;20049;-79
2023/01/20 08:44:37;;;;;;;22.33;12.57;;;;;;;-0.93;100.00;98928.31;5051955;28;20041;-79
2023/01/20 08:47:03;;;;;;;21.20;10.65;;;;;;;-0.99;100.00;98921.63;5052788;28;20084;-79
2023/01/20 08:49:30;;;;;;;25.73;12.85;;;;;;;-0.92;100.00;98930.88;5052229;28;20076;-79
2023/01/20 08:51:58;;;;;;;25.05;12.48;;;;;;;-0.93;100.00;98925.66;5053057;28;20045;-79
2023/01/20 08:54:25;;;;;;;29.02;11.98;;;;;;;-0.96;100.00;98920.56;5048563;28;20071;-79
2023/01/20 08:56:51;;;;;;;20.25;10.90;;;;;;;-1.03;100.00;98924.66;5049529;28;20067;-79
2023/01/20 08:59:19;;;;;;;18.98;10.43;;;;;;;-0.88;100.00;98946.66;5051629;28;20041;-79
2023/01/20 09:01:45;;;;;;;21.45;11.60;;;;;;;-0.92;100.00;98943.34;5051671;28;20053;-79
2023/01/20 09:04:12;;;;;;;19.17;11.07;;;;;;;-0.82;100.00;98954.19;5050528;28;20424;-79
2023/01/20 09:06:41;;;;;;;17.15;10.90;;;;;;;-0.80;100.00;98958.44;5032944;28;20049;-79
2023/01/20 09:09:09;;;;;;;22.67;11.00;;;;;;;-0.91;100.00;98958.41;5039555;28;20445;-79
2023/01/20 09:11:36;;;;;;;29.70;11.63;;;;;;;-0.87;100.00;98967.88;5052652;28;20041;-79
2023/01/20 09:14:03;;;;;;;20.52;11.70;;;;;;;-0.98;100.00;98959.81;5049305;28;20048;-79
2023/01/20 09:16:29;;;;;;;18.58;11.23;;;;;;;-0.94;100.00;98969.31;5044639;28;20041;-79
2023/01/20 09:18:56;;;;;;;23.55;10.43;;;;;;;-1.21;100.00;98958.91;5052754;28;20488;-79
2023/01/20 09:21:22;;;;;;;19.95;11.27;;;;;;;-1.02;100.00;98969.03;5033123;28;20493;-79
2023/01/20 09:23:51;;;;;;;16.95;10.38;;;;;;;-1.14;100.00;98960.16;5030960;28;20056;-79
2023/01/20 09:26:19;;;;;;;23.90;11.20;;;;;;;-0.98;100.00;98983.84;5048795;28;20049;-79
2023/01/20 09:28:46;;;;;;;22.38;11.05;;;;;;;-1.05;100.00;98963.91;5041403;28;20316;-79
2023/01/20 09:31:13;;;;;;;20.02;11.55;;;;;;;-0.91;100.00;98983.25;5047835;28;20045;-79
2023/01/20 09:33:40;;;;;;;19.45;11.63;;;;;;;-1.07;100.00;98948.91;5048620;28;20056;-79
2023/01/20 09:36:09;;;;;;;19.35;11.57;;;;;;;-0.99;100.00;98974.16;5050975;28;20073;-79
2023/01/20 09:44:25;;;;;;;18.13;10.18;;;;;;;-0.79;100.00;98980.63;5033592;28;20616;-79
2023/01/20 09:47:19;;;;;;;16.40;10.25;;;;;;;-0.68;100.00;98998.50;5047446;28;20405;-79
2023/01/20 09:53:01;;;;;;;19.40;11.00;;;;;;;-0.79;100.00;98983.31;5046240;28;20106;-79
2023/01/20 09:55:33;;;;;;;22.35;10.85;;;;;;;-0.95;100.00;98975.59;5042576;28;20053;-79
2023/01/20 09:58:15;;;;;;;23.35;11.05;;;;;;;-0.88;100.00;98992.84;5050399;28;20154;-79
2023/01/20 10:00:48;;;;;;;19.83;11.50;;;;;;;-0.86;100.00;98980.25;5041420;28;20052;-79
2023/01/20 10:03:29;;;;;;;20.05;10.88;;;;;;;-0.95;100.00;98960.47;5050887;28;20053;-79
2023/01/20 10:05:59;;;;;;;27.33;11.07;;;;;;;-1.00;100.00;98972.44;5050930;28;20423;-79
2023/01/20 10:08:33;;;;;;;24.38;10.60;;;;;;;-0.76;100.00;98999.94;5049935;28;20045;-79
2023/01/20 10:11:05;;;;;;;20.73;11.25;;;;;;;-0.71;100.00;98988.91;5046851;28;20045;-79
2023/01/20 10:13:46;;;;;;;20.77;10.00;;;;;;;-0.61;100.00;98981.88;5038379;28;20057;-79
2023/01/20 10:16:21;;;;;;;25.10;10.88;;;;;;;-0.58;100.00;98991.50;5031593;28;20081;-79
2023/01/20 10:18:52;;;;;;;18.90;10.27;;;;;;;-0.54;100.00;98998.31;5048995;28;20404;-79
2023/01/20 10:21:27;;;;;;;18.58;9.57;;;;;;;-0.41;100.00;99001.69;5050052;28;20049;-79
2023/01/20 10:23:58;;;;;;;18.40;10.00;;;;;;;-0.42;100.00;98994.69;5052490;28;20060;-80
2023/01/20 10:26:30;;;;;;;17.20;9.48;;;;;;;-0.54;100.00;98982.28;5053378;28;20052;-79
2023/01/20 10:29:00;;;;;;;17.77;9.27;;;;;;;-0.41;100.00;98984.84;5052354;28;20044;-79
2023/01/20 10:31:29;;;;;;;19.10;10.38;;;;;;;-0.33;100.00;99003.81;5052771;28;20049;-79
2023/01/20 10:34:00;;;;;;;18.65;9.48;;;;;;;-0.69;100.00;98978.09;5052025;28;20139;-79
2023/01/20 10:36:29;;;;;;;17.95;9.27;;;;;;;-0.65;100.00;98983.09;5051700;28;20045;-79
2023/01/20 10:39:03;;;;;;;21.38;9.52;;;;;;;-0.33;100.00;99009.16;5052816;28;20056;-79
2023/01/20 10:41:38;;;;;;;18.65;10.50;;;;;;;-0.46;100.00;98987.88;5050715;28;20090;-79
2023/01/20 10:44:11;;;;;;;20.45;9.75;;;;;;;-0.44;100.00;98998.44;5051948;28;20041;-79
2023/01/20 10:46:53;;;;;;;20.63;9.85;;;;;;;-0.49;100.00;98996.13;5052354;28;20068;-79
2023/01/20 10:49:44;;;;;;;13.07;7.32;;;;;;;-0.36;100.00;99002.22;5052839;28;20057;-79
2023/01/20 10:52:27;;;;;;;16.02;8.35;;;;;;;-0.47;100.00;98987.97;5051809;28;20060;-79
2023/01/20 10:55:02;;;;;;;17.77;8.95;;;;;;;-0.41;100.00;98992.84;5052339;28;20404;-79
2023/01/20 10:57:28;;;;;;;16.15;9.10;;;;;;;-0.34;100.00;98998.56;5051806;28;20048;-79
2023/01/20 11:00:02;;;;;;;16.08;9.13;;;;;;;-0.39;100.00;98982.91;5052339;28;20041;-79
2023/01/20 11:02:33;;;;;;;15.40;7.93;;;;;;;-0.20;100.00;99009.03;5049033;28;20052;-79
2023/01/20 11:05:02;;;;;;;19.38;8.70;;;;;;;-0.20;100.00;98995.66;5050597;28;20057;-79
2023/01/20 11:07:31;;;;;;;13.38;8.18;;;;;;;-0.24;100.00;98987.03;5050235;28;20571;-79
2023/01/20 11:10:01;;;;;;;14.93;8.80;;;;;;;-0.10;100.00;99004.66;5047562;28;20495;-79
2023/01/20 11:12:31;;;;;;;14.73;8.68;;;;;;;-0.10;100.00;99001.16;5047546;28;20048;-79
2023/01/20 11:15:00;;;;;;;15.73;8.43;;;;;;;-0.01;100.00;99001.25;5046287;28;20051;-79
2023/01/20 11:17:27;;;;;;;16.10;8.73;;;;;;;-0.14;100.00;98997.84;5050296;28;20416;-79
2023/01/20 11:19:55;;;;;;;17.90;8.60;;;;;;;-0.03;100.00;98994.31;5050414;28;20052;-79
2023/01/20 11:22:29;;;;;;;17.80;8.70;;;;;;;0.04;100.00;99010.75;5047486;28;20041;-79
2023/01/20 11:25:00;;;;;;;13.40;8.40;;;;;;;0.23;100.00;99004.78;5045408;28;20057;-79
2023/01/20 11:27:29;;;;;;;18.08;7.85;;;;;;;0.31;100.00;99013.88;5048169;28;20076;-79
2023/01/20 11:30:01;;;;;;;15.77;8.80;;;;;;;0.25;100.00;99005.50;5046374;28;20057;-79
2023/01/20 11:32:31;;;;;;;17.42;9.15;;;;;;;0.22;100.00;98995.06;5049248;28;20045;-79